Terminal Aerodrome Forecast
Issued by NWS Billings, MT

Home | Current Version | Previous Version | Text Only | Print | Product List | Glossary On
Versions: 1 2 3 4 5 6 7 8 9 10 11 12 13 14 15
000
FTUS45 KBYZ 222337
TAFMLS
TAF
KMLS 222337Z 2300/2324 03007KT P6SM VCSH BKN015 OVC025
     FM230300 06007KT P6SM SCT004 BKN007 OVC012
     FM230900 04007KT 6SM BR BKN004 OVC007
     FM231800 05010KT P6SM SCT007 BKN020=

USA.gov is the U.S. government's official web portal to all federal, state and local government web resources and services.